Rapports METAR des aéroports proches

 

LFSI - St. Dizier/Robin, France
Distance from station: SO 26km
Mise à jour: 16/10/2018 15:30
clair
clair
 Wind from O
Vent: O 7 km/h
Température: 24°C
Point de rosée: 9°C
Humidité: 39%
Baromètre: 1018 hPa
Résumé: clair
Visibility: greater than 10 km
2018/10/16 13:30 LFSI 161330Z AUTO 26004KT 220V310 CAVOK 24/09 Q1018
LFSO - Nancy/Ochey (faf, France
Distance from station: ESE 62km
Mise à jour: 16/10/2018 15:30
clair
clair
 Wind from varies
Vent: varies 6 km/h
Température: 23°C
Point de rosée: 8°C
Humidité: 38%
Baromètre: 1018 hPa
Résumé: clair
Visibility: greater than 10 km
2018/10/16 13:30 LFSO 161330Z AUTO VRB03KT CAVOK 23/08 Q1018 NOSIG
 
LFOK - Chalons/Vatry Fa, France
Distance from station: O 73km
Mise à jour: 16/10/2018 15:30
clair
clair
 Wind from NE
Vent: NE 6 km/h
Température: 23°C
Point de rosée: 10°C
Humidité: 44%
Baromètre: 1018 hPa
Résumé: clair
Visibility: greater than 10 km
2018/10/16 13:30 LFOK 161330Z AUTO 04003KT 350V080 CAVOK 23/10 Q1018 NOSIG
LFSN - Nancy/Essey, France
Distance from station: E 77km
Mise à jour: 16/10/2018 15:30
clair
clair
 Wind from ENE
Vent: ENE 11 km/h
Température: 24°C
Point de rosée: 10°C
Humidité: 41%
Baromètre: 1018 hPa
Résumé: clair
Visibility: greater than 10 km
2018/10/16 13:30 LFSN 161330Z AUTO 07006KT 360V120 CAVOK 24/10 Q1018
 
LFJL - Metz-Nancy-Lorra, France
Distance from station: ENE 82km
Mise à jour: 16/10/2018 15:30
clair
clair
 Wind from E
Vent: E 17 km/h
Température: 23°C
Point de rosée: 8°C
Humidité: 38%
Baromètre: 1018 hPa
Résumé: clair
Visibility: greater than 10 km
2018/10/16 13:30 LFJL 161330Z AUTO 08009KT CAVOK 23/08 Q1018 NOSIG
LFQA - Reims/Prunay, France
Distance from station: ONO 89km
Mise à jour: 16/10/2018 15:30
clair
clair
 Wind from varies
Vent: varies 4 km/h
Température: 24°C
Point de rosée: 9°C
Humidité: 39%
Baromètre: 1018 hPa
Résumé: clair
Visibility: greater than 10 km
2018/10/16 13:30 LFQA 161330Z AUTO VRB02KT CAVOK 24/09 Q1018
 
LFQB - Troyes/Barberey, France
Distance from station: OSO 99km
Mise à jour: 16/10/2018 15:30
clair
clair
 Wind from NNO
Vent: NNO 11 km/h
Température: 24°C
Point de rosée: 9°C
Humidité: 39%
Baromètre: 1018 hPa
Résumé: clair
Visibility: greater than 10 km
2018/10/16 13:30 LFQB 161330Z AUTO 33006KT 300V360 CAVOK 24/09 Q1018
ELLX - Luxembourg (aut), Luxembourg
Distance from station: NE 122km
Mise à jour: 16/10/2018 15:50
clair
clair
 Wind from E
Vent: E 6 km/h
Température: 21°C
Point de rosée: 9°C
Humidité: 46%
Baromètre: 1019 hPa
Résumé: clair
Visibility: greater than 10 km
2018/10/16 13:50 ELLX 161350Z 10003KT CAVOK 21/09 Q1019 NOSIG